createdAt,value
2022-12-18T00:01:33.989Z,26.75
2022-12-18T00:06:36.470Z,24.42
2022-12-18T00:11:37.826Z,20.30
2022-12-18T00:16:40.090Z,27.23
2022-12-18T00:21:42.813Z,31.63
2022-12-18T00:26:44.205Z,21.73
2022-12-18T00:31:46.836Z,28.65
2022-12-18T00:36:49.213Z,24.63
2022-12-18T00:42:08.938Z,22.05
2022-12-18T00:47:10.286Z,22.02
2022-12-18T00:52:11.715Z,26.73
2022-12-18T00:57:13.077Z,39.60
2022-12-18T01:02:14.561Z,33.83
2022-12-18T01:07:15.978Z,33.95
2022-12-18T01:12:17.371Z,31.92
2022-12-18T01:17:18.754Z,34.95
2022-12-18T01:22:20.130Z,46.75
2022-12-18T01:27:21.533Z,38.92
2022-12-18T01:32:23.360Z,41.25
2022-12-18T01:37:24.806Z,39.90
2022-12-18T01:42:26.546Z,23.30
2022-12-18T01:47:45.740Z,28.60
2022-12-18T01:52:50.864Z,27.90
2022-12-18T01:57:57.289Z,21.92
2022-12-18T02:02:58.746Z,34.22
2022-12-18T02:08:05.884Z,23.70
2022-12-18T02:13:21.890Z,31.13
2022-12-18T02:18:33.424Z,74.43
2022-12-18T02:23:53.432Z,39.38
2022-12-18T02:29:00.563Z,51.58
2022-12-18T02:34:06.500Z,30.08
2022-12-18T02:39:11.576Z,25.00
2022-12-18T02:44:15.140Z,25.17
2022-12-18T02:49:28.858Z,30.45
2022-12-18T02:55:18.100Z,21.38
2022-12-18T03:00:25.944Z,41.88
2022-12-18T03:05:39.524Z,29.52
2022-12-18T03:10:46.465Z,24.90
2022-12-18T03:15:52.476Z,32.42
2022-12-18T03:20:56.621Z,26.20
2022-12-18T03:26:07.320Z,25.40
2022-12-18T03:31:12.895Z,30.15
2022-12-18T03:36:15.251Z,24.35
2022-12-18T03:41:24.395Z,27.08
2022-12-18T03:46:43.081Z,31.02
2022-12-18T03:51:54.189Z,25.20
2022-12-18T03:57:05.727Z,28.33
2022-12-18T04:02:08.993Z,31.50
2022-12-18T04:07:11.345Z,29.25
2022-12-18T04:12:12.704Z,23.67
2022-12-18T04:17:14.714Z,36.08
2022-12-18T04:22:16.419Z,22.77
2022-12-18T04:27:17.816Z,26.30
2022-12-18T04:32:19.244Z,27.13
2022-12-18T04:37:20.608Z,30.67
2022-12-18T04:42:22.111Z,30.65
2022-12-18T04:47:23.445Z,21.38
2022-12-18T04:52:25.012Z,20.65
2022-12-18T04:57:27.002Z,23.60
2022-12-18T05:02:28.462Z,21.42
2022-12-18T05:07:29.900Z,13.18
2022-12-18T05:12:32.481Z,20.80
2022-12-18T05:17:33.895Z,18.70
2022-12-18T05:22:35.256Z,20.88
2022-12-18T05:27:36.599Z,20.00
2022-12-18T05:32:38.428Z,18.40
2022-12-18T05:37:43.171Z,18.13
2022-12-18T05:42:44.941Z,16.33
2022-12-18T05:47:46.299Z,22.10
2022-12-18T05:52:47.644Z,25.92
2022-12-18T05:57:48.998Z,24.20
2022-12-18T06:02:50.455Z,22.05
2022-12-18T06:07:51.934Z,18.52
2022-12-18T06:12:53.731Z,23.63
2022-12-18T06:17:55.178Z,19.58
2022-12-18T06:22:56.566Z,33.28
2022-12-18T06:27:57.898Z,23.98
2022-12-18T06:32:59.365Z,23.77
2022-12-18T06:38:02.387Z,20.65
2022-12-18T06:43:03.716Z,18.95
2022-12-18T06:48:05.179Z,24.48
2022-12-18T06:53:06.532Z,20.38
2022-12-18T06:58:08.838Z,26.35
2022-12-18T07:03:12.672Z,21.88
2022-12-18T07:08:14.098Z,24.52
2022-12-18T07:13:18.812Z,21.70
2022-12-18T07:18:20.257Z,24.35
2022-12-18T07:23:21.607Z,20.13
2022-12-18T07:28:22.994Z,26.20
2022-12-18T07:33:26.154Z,25.88
2022-12-18T07:38:28.228Z,26.95
2022-12-18T07:43:29.814Z,22.13
2022-12-18T07:48:31.731Z,22.80
2022-12-18T07:53:34.908Z,29.40
2022-12-18T07:58:37.155Z,25.27
2022-12-18T08:03:40.360Z,22.30
2022-12-18T08:08:43.102Z,27.10
2022-12-18T08:13:44.467Z,25.75
2022-12-18T08:18:46.262Z,23.70
2022-12-18T08:23:48.722Z,35.92
2022-12-18T08:28:51.306Z,25.95
2022-12-18T08:33:53.947Z,27.70
2022-12-18T08:38:57.548Z,32.45
2022-12-18T08:44:17.849Z,31.42
2022-12-18T08:49:19.301Z,33.10
2022-12-18T08:54:20.674Z,30.13
2022-12-18T08:59:22.072Z,26.05
2022-12-18T09:04:23.743Z,27.63
2022-12-18T09:09:25.282Z,30.05
2022-12-18T09:14:26.620Z,31.05
2022-12-18T09:19:28.112Z,39.92
2022-12-18T09:24:29.501Z,36.28
2022-12-18T09:29:31.049Z,34.50
2022-12-18T09:34:32.399Z,33.42
2022-12-18T09:39:36.806Z,32.80
2022-12-18T09:44:47.347Z,39.72
2022-12-18T09:49:56.010Z,38.90
2022-12-18T09:55:10.483Z,36.67
2022-12-18T10:00:19.982Z,42.42
2022-12-18T10:05:41.044Z,38.80
2022-12-18T10:11:02.375Z,42.60
2022-12-18T10:16:16.406Z,35.05
2022-12-18T10:21:24.775Z,41.63
2022-12-18T10:26:26.318Z,46.65
2022-12-18T10:31:27.764Z,44.17
2022-12-18T10:36:30.033Z,50.72
2022-12-18T10:41:33.215Z,43.13
2022-12-18T10:46:34.605Z,42.75
2022-12-18T10:51:38.406Z,47.30
2022-12-18T10:56:40.442Z,46.38
2022-12-18T11:01:48.445Z,44.28
2022-12-18T11:06:59.023Z,51.25
2022-12-18T11:12:03.778Z,46.75
2022-12-18T11:22:32.899Z,49.92
2022-12-18T11:27:34.386Z,47.55
2022-12-18T11:32:41.708Z,52.78
2022-12-18T11:37:48.820Z,50.55
2022-12-18T11:42:59.096Z,50.80
2022-12-18T11:48:19.607Z,51.88
2022-12-18T11:53:21.496Z,44.13
2022-12-18T11:58:35.765Z,49.67
2022-12-18T12:04:14.854Z,39.55
2022-12-18T12:09:47.784Z,47.45
2022-12-18T12:15:18.055Z,46.35
2022-12-18T12:20:44.252Z,46.33
2022-12-18T12:25:48.969Z,47.75
2022-12-18T12:31:16.249Z,52.60
2022-12-18T12:36:31.744Z,43.35
2022-12-18T12:41:55.102Z,49.95
2022-12-18T12:47:01.528Z,40.97
2022-12-18T12:52:12.826Z,54.63
2022-12-18T12:57:21.349Z,51.53
2022-12-18T13:02:25.114Z,46.58
2022-12-18T13:07:33.569Z,46.00
2022-12-18T13:18:28.891Z,47.90
2022-12-18T13:23:32.062Z,53.90
2022-12-18T13:28:33.737Z,45.15
2022-12-18T13:33:35.397Z,39.90
2022-12-18T13:38:40.770Z,49.38
2022-12-18T13:43:50.600Z,53.20
2022-12-18T13:48:56.617Z,46.92
2022-12-18T13:54:06.942Z,43.15
2022-12-18T13:59:41.091Z,51.17
2022-12-18T14:04:46.419Z,53.28
2022-12-18T14:09:55.616Z,46.40
2022-12-18T14:15:04.841Z,47.75
2022-12-18T14:20:15.633Z,43.97
2022-12-18T14:25:23.078Z,45.75
2022-12-18T14:30:24.540Z,39.00
2022-12-18T14:35:25.954Z,44.88
2022-12-18T14:40:27.439Z,45.20
2022-12-18T14:45:45.271Z,46.25
2022-12-18T14:51:15.314Z,49.65
2022-12-18T14:56:28.123Z,48.92
2022-12-18T15:01:38.177Z,42.50
2022-12-18T15:06:40.998Z,49.58
2022-12-18T15:11:42.303Z,48.85
2022-12-18T15:16:46.238Z,53.92
2022-12-18T15:21:47.759Z,50.83
2022-12-18T15:26:49.883Z,57.38
2022-12-18T15:32:06.362Z,59.17
2022-12-18T15:37:08.857Z,53.17
2022-12-18T15:42:29.786Z,47.30
2022-12-18T15:47:31.154Z,50.63
2022-12-18T15:52:44.946Z,51.83
2022-12-18T15:57:46.349Z,55.55
2022-12-18T16:02:47.905Z,55.97
2022-12-18T16:07:49.597Z,48.13
2022-12-18T16:12:51.302Z,45.95
2022-12-18T16:17:53.149Z,53.53
2022-12-18T16:22:54.505Z,53.42
2022-12-18T16:27:57.256Z,52.65
2022-12-18T16:32:59.281Z,52.40
2022-12-18T16:38:00.662Z,68.50
2022-12-18T16:43:02.073Z,58.20
2022-12-18T16:48:03.991Z,55.65
2022-12-18T16:53:05.349Z,65.43
2022-12-18T16:58:06.719Z,66.47
2022-12-18T17:03:08.315Z,68.35
2022-12-18T17:08:09.922Z,59.22
2022-12-18T17:13:11.353Z,63.22
2022-12-18T17:18:12.860Z,60.13
2022-12-18T17:23:14.242Z,62.33
2022-12-18T17:28:15.674Z,61.80
2022-12-18T17:33:17.105Z,81.72
2022-12-18T17:38:18.524Z,75.15
2022-12-18T17:43:20.083Z,76.47
2022-12-18T17:48:21.935Z,76.10
2022-12-18T17:53:23.596Z,59.72
2022-12-18T17:58:25.046Z,66.28
2022-12-18T18:03:26.711Z,54.22
2022-12-18T18:08:29.001Z,59.35
2022-12-18T18:13:49.522Z,54.42
2022-12-18T18:18:51.248Z,59.92
2022-12-18T18:23:52.662Z,55.60
2022-12-18T18:28:55.111Z,49.58
2022-12-18T18:33:57.642Z,53.45
2022-12-18T18:39:03.098Z,60.88
2022-12-18T18:44:05.014Z,60.47
2022-12-18T18:49:06.871Z,61.63
2022-12-18T18:54:09.642Z,61.58
2022-12-18T18:59:11.045Z,58.42
2022-12-18T19:04:12.545Z,64.38
2022-12-18T19:09:13.958Z,65.63
2022-12-18T19:14:16.078Z,52.45
2022-12-18T19:19:20.954Z,52.60
2022-12-18T19:24:22.814Z,53.05
2022-12-18T19:29:24.223Z,52.42
2022-12-18T19:34:25.794Z,53.45
2022-12-18T19:39:27.321Z,55.13
2022-12-18T19:44:28.736Z,54.33
2022-12-18T19:49:31.995Z,51.08
2022-12-18T19:54:33.641Z,54.45
2022-12-18T19:59:36.877Z,56.72
2022-12-18T20:04:40.473Z,52.25
2022-12-18T20:09:41.827Z,50.35
2022-12-18T20:14:43.707Z,53.58
2022-12-18T20:19:45.438Z,51.80
2022-12-18T20:24:46.838Z,47.72
2022-12-18T20:29:50.971Z,46.10
2022-12-18T20:34:52.327Z,49.30
2022-12-18T20:39:55.024Z,48.58
2022-12-18T20:44:56.845Z,45.40
2022-12-18T20:49:58.407Z,43.88
2022-12-18T20:54:59.854Z,37.83
2022-12-18T21:00:02.512Z,51.28
2022-12-18T21:05:04.430Z,49.75
2022-12-18T21:10:06.410Z,51.72
2022-12-18T21:15:09.510Z,46.58
2022-12-18T21:20:11.091Z,36.80
2022-12-18T21:30:20.103Z,42.85
2022-12-18T21:35:21.492Z,39.95
2022-12-18T21:40:24.951Z,38.58
2022-12-18T21:45:26.311Z,50.83
2022-12-18T21:50:27.707Z,52.88
2022-12-18T21:55:29.061Z,45.33
2022-12-18T22:00:30.393Z,48.80
2022-12-18T22:05:31.764Z,49.35
2022-12-18T22:10:33.185Z,43.08
2022-12-18T22:15:34.747Z,41.90
2022-12-18T22:20:36.167Z,43.50
2022-12-18T22:25:39.681Z,48.75
2022-12-18T22:30:41.514Z,48.00
2022-12-18T22:35:43.007Z,46.60
2022-12-18T22:40:44.790Z,43.10
2022-12-18T22:45:47.283Z,45.03
2022-12-18T22:50:49.558Z,50.28
2022-12-18T22:55:52.289Z,49.92
2022-12-18T23:00:54.218Z,46.08
2022-12-18T23:06:03.075Z,43.67
2022-12-18T23:11:05.325Z,45.58
2022-12-18T23:16:09.015Z,45.60
2022-12-18T23:21:13.919Z,47.67
2022-12-18T23:26:21.914Z,49.30
2022-12-18T23:36:26.406Z,41.70
2022-12-18T23:41:31.329Z,45.70
2022-12-18T23:46:35.973Z,47.60
2022-12-18T23:51:37.738Z,47.60
2022-12-18T23:56:40.894Z,44.60
